Flight Track Log - Related Links

Times and Time Zones

All times are in EDT time to prevent confusion due to time zone crossing. See the TAM8053 flight status page for this flight to view local times or setup timezone preferences in your user account.

Time Position Orientation Groundspeed Altitude Reporting Facility
EDT Latitude Longitude Course Direction KTS MPH feet Rate Location/Type
Tue 10:20:01 AM 25.8010 -80.2860 90° East 165 190  Level FlightAware ADS-B
Tue 10:20:20 AM 25.8020 -80.2680 86° East 183 211 400 2,000 Climbing FlightAware ADS-B
Tue 10:20:28 AM 25.8010 -80.2610 99° East 179 206 900 3,750 Climbing FlightAware ADS-B
Tue 10:20:36 AM 25.7990 -80.2540 108° East 172 198 1,400 2,571 Climbing FlightAware ADS-B
Tue 10:20:49 AM 25.7950 -80.2450 116° Southeast 179 206 1,800 1,941 Climbing FlightAware ADS-B
Tue 10:21:10 AM 25.7850 -80.2260 120° Southeast 189 217 2,500 2,063 Climbing FlightAware ADS-B
Tue 10:21:21 AM 25.7810 -80.2180 119° Southeast 189 217 2,900 1,742 Climbing FlightAware ADS-B
Tue 10:21:41 AM 25.7710 -80.2000 122° Southeast 212 244 3,400 1,448 Climbing FlightAware ADS-B
Tue 10:21:50 AM 25.7630 -80.1940 146° Southeast 226 260 3,600 1,600 Climbing FlightAware ADS-B
Tue 10:22:11 AM 25.7450 -80.1810 147° Southeast 241 277 4,200 2,093 Climbing FlightAware ADS-B
Tue 10:22:33 AM 25.7220 -80.1670 151° Southeast 252 290 5,100 2,471 Climbing FlightAware ADS-B
Tue 10:22:45 AM 25.7090 -80.1600 154° Southeast 255 293 5,600 2,526 Climbing FlightAware ADS-B
Tue 10:23:11 AM 25.6830 -80.1420 148° Southeast 265 305 6,700 2,478 Climbing FlightAware ADS-B
Tue 10:23:31 AM 25.6620 -80.1250 144° Southeast 276 318 7,500 2,438 Climbing FlightAware ADS-B
Tue 10:23:43 AM 25.6510 -80.1140 138° Southeast 281 323 8,000 2,667 Climbing FlightAware ADS-B
Tue 10:24:07 AM 25.6280 -80.0930 141° Southeast 284 327 9,100 2,857 Climbing FlightAware ADS-B
Tue 10:24:25 AM 25.6090 -80.0750 139° Southeast 288 331 10,000 1,964 Climbing FlightAware ADS-B
Tue 10:25:02 AM 25.5690 -80.0370 139° Southeast 324 373 10,900 1,377 Climbing FlightAware ADS-B
Tue 10:25:26 AM 25.5390 -80.0110 142° Southeast 351 404 11,400 1,350 Climbing FlightAware ADS-B
Tue 10:25:42 AM 25.5140 -80.0000 158° South 366 421 11,800 2,000 Climbing FlightAware ADS-B
Tue 10:26:14 AM 25.4590 -79.9900 171° South 382 440 13,000 2,250 Climbing FlightAware ADS-B
Tue 10:26:54 AM 25.3890 -79.9860 177° South 395 455 14,500 2,366 Climbing FlightAware ADS-B
Tue 10:27:25 AM 25.3350 -79.9640 160° South 392 451 15,800 2,471 Climbing FlightAware ADS-B
Tue 10:28:02 AM 25.2770 -79.9260 149° Southeast 397 457 17,300 2,384 Climbing FlightAware ADS-B
Tue 10:28:38 AM 25.2190 -79.8860 148° Southeast 404 465 18,700 2,149 Climbing FlightAware ADS-B
Tue 10:29:09 AM 25.1690 -79.8520 148° Southeast 420 483 19,700 1,881 Climbing FlightAware ADS-B
Tue 10:29:45 AM 25.1090 -79.8110 148° Southeast 422 486 20,800 1,808 Climbing FlightAware ADS-B
Tue 10:30:22 AM 25.0470 -79.7690 148° Southeast 440 506 21,900 1,765 Climbing FlightAware ADS-B
Tue 10:30:53 AM 24.9910 -79.7310 148° Southeast 441 507 22,800 1,690 Climbing FlightAware ADS-B
Tue 10:31:33 AM 24.9180 -79.6820 149° Southeast 452 520 23,900 1,629 Climbing FlightAware ADS-B
Tue 10:32:03 AM 24.8610 -79.6440 149° Southeast 460 529 24,700 1,612 Climbing FlightAware ADS-B
Tue 10:32:40 AM 24.7960 -79.6000 148° Southeast 472 543 25,700 1,644 Climbing FlightAware ADS-B
Tue 10:33:16 AM 24.7260 -79.5530 149° Southeast 471 542 26,700 1,667 Climbing FlightAware ADS-B
Tue 10:33:52 AM 24.6580 -79.5080 149° Southeast 473 544 27,700 1,833 Climbing FlightAware ADS-B
Tue 10:34:28 AM 24.5900 -79.4620 148° Southeast 471 542 28,900 1,791 Climbing FlightAware ADS-B
Tue 10:34:59 AM 24.5330 -79.4240 149° Southeast 470 541 29,700 1,522 Climbing FlightAware ADS-B
Tue 10:35:35 AM 24.4620 -79.3770 149° Southeast 471 542 30,600 1,417 Climbing FlightAware ADS-B
Tue 10:36:11 AM 24.3970 -79.3340 149° Southeast 471 542 31,400 1,462 Climbing FlightAware ADS-B
Tue 10:36:53 AM 24.3150 -79.2790 149° Southeast 474 545 32,500 1,157 Climbing FlightAware ADS-B
Tue 10:37:34 AM 24.2390 -79.2280 149° Southeast 473 544 33,000 370 Climbing FlightAware ADS-B
Tue 10:38:14 AM 24.1760 -79.1850 148° Southeast 473 544 33,000 -90 Level FlightAware ADS-B
Tue 10:38:41 AM 24.1200 -79.1340 140° Southeast 468 539 32,900 -103 Descending FlightAware ADS-B
Tue 10:39:12 AM 24.0880 -79.0700 119° Southeast 461 531 32,900  Level FlightAware ADS-B
Tue 10:39:46 AM 24.0690 -79.0090 109° East 462 532 32,900  Level FlightAware ADS-B
Tue 10:41:00 AM 24.0370 -78.8680 104° East 462 532 32,900  Level FlightAware ADS-B
Tue 10:41:37 AM 24.0160 -78.7980 108° East 462 532 32,900  Level FlightAware ADS-B
Tue 10:42:14 AM 23.9960 -78.7280 107° East 462 532 32,900  Level FlightAware ADS-B
Tue 10:42:59 AM 23.9700 -78.6430 108° East 462 532 32,900  Level FlightAware ADS-B
Tue 10:43:47 AM 23.9430 -78.5520 108° East 462 532 32,900  Level FlightAware ADS-B
Tue 10:44:23 AM 23.9230 -78.4840 108° East 462 532 32,900  Level FlightAware ADS-B
Tue 10:45:00 AM 23.9020 -78.4140 108° East 462 532 32,900  Level FlightAware ADS-B
Tue 10:45:36 AM 23.8820 -78.3460 108° East 462 532 32,900  Level FlightAware ADS-B
Tue 10:46:12 AM 23.8620 -78.2780 108° East 462 532 32,900  Level FlightAware ADS-B
Tue 10:46:48 AM 23.8420 -78.2100 108° East 462 532 32,900  Level FlightAware ADS-B
Tue 10:47:24 AM 23.8220 -78.1420 108° East 462 532 32,900  Level FlightAware ADS-B
Tue 10:48:12 AM 23.7950 -78.0520 108° East 462 532 32,900  Level FlightAware ADS-B
Tue 10:48:48 AM 23.7740 -77.9840 109° East 462 532 32,900  Level FlightAware ADS-B
Tue 10:49:25 AM 23.7540 -77.9140 107° East 462 532 32,900 Level FlightAware ADS-B
Tue 10:52:00 AM 23.5047 -77.6844 140° Southeast  Level Estimated
Tue 10:53:00 AM 23.4082 -77.5958 140° Southeast  Level Estimated
Tue 10:54:00 AM 23.3115 -77.5073 140° Southeast  Level Estimated
Tue 10:55:00 AM 23.2149 -77.4189 140° Southeast  Level Estimated
Tue 10:56:00 AM 23.1182 -77.3307 140° Southeast  Level Estimated
Tue 10:57:00 AM 23.0214 -77.2426 140° Southeast  Level Estimated
Tue 10:58:00 AM 22.9246 -77.1546 140° Southeast  Level Estimated
Tue 10:59:00 AM 22.8277 -77.0667 140° Southeast  Level Estimated
Tue 11:00:00 AM 22.7308 -76.9790 140° Southeast  Level Estimated
Tue 11:01:00 AM 22.6338 -76.8913 140° Southeast  Level Estimated
Tue 11:02:00 AM 22.5368 -76.8038 140° Southeast  Level Estimated
Tue 11:03:00 AM 22.4397 -76.7165 140° Southeast  Level Estimated
Tue 11:04:00 AM 22.3426 -76.6292 140° Southeast  Level Estimated
Tue 11:05:00 AM 22.2455 -76.5421 140° Southeast  Level Estimated
Tue 11:06:00 AM 22.1483 -76.4551 140° Southeast  Level Estimated
Tue 11:07:00 AM 22.0510 -76.3682 140° Southeast  Level Estimated
Tue 11:08:00 AM 21.9537 -76.2814 140° Southeast  Level Estimated
Tue 11:09:00 AM 21.8564 -76.1948 140° Southeast  Level Estimated
Tue 11:10:00 AM 21.7590 -76.1083 140° Southeast  Level Estimated
Tue 11:11:00 AM 21.6616 -76.0218 140° Southeast  Level Estimated
Tue 11:12:00 AM 21.5641 -75.9355 141° Southeast  Level Estimated
Tue 11:13:00 AM 21.4666 -75.8494 141° Southeast  Level Estimated
Tue 11:14:00 AM 21.3690 -75.7633 141° Southeast  Level Estimated
Tue 11:15:00 AM 21.2714 -75.6774 141° Southeast  Level Estimated
Tue 11:16:00 AM 21.1738 -75.5915 141° Southeast  Level Estimated
Tue 11:17:00 AM 21.0761 -75.5058 141° Southeast  Level Estimated
Tue 11:18:00 AM 20.9783 -75.4202 141° Southeast  Level Estimated
Tue 11:19:00 AM 20.8806 -75.3347 141° Southeast  Level Estimated
Tue 11:20:00 AM 20.7827 -75.2493 141° Southeast  Level Estimated
Tue 11:21:00 AM 20.6849 -75.1640 141° Southeast  Level Estimated
Tue 11:22:00 AM 20.5870 -75.0788 141° Southeast  Level Estimated
Tue 11:23:00 AM 20.4890 -74.9938 141° Southeast  Level Estimated
Tue 11:24:00 AM 20.3910 -74.9088 141° Southeast  Level Estimated
Tue 11:25:00 AM 20.2930 -74.8240 141° Southeast  Level Estimated
Tue 11:26:00 AM 20.1949 -74.7393 141° Southeast  Level Estimated
Tue 11:27:00 AM 20.0968 -74.6546 141° Southeast  Level Estimated
Tue 11:28:00 AM 19.9987 -74.5701 141° Southeast  Level Estimated
Tue 11:29:00 AM 19.9005 -74.4857 141° Southeast  Level Estimated
Tue 11:30:00 AM 19.8023 -74.4014 141° Southeast  Level Estimated
Tue 11:31:00 AM 19.7040 -74.3172 141° Southeast  Level Estimated
Tue 11:32:00 AM 19.6057 -74.2331 141° Southeast  Level Estimated
Tue 11:33:00 AM 19.5073 -74.1491 141° Southeast  Level Estimated
Tue 11:34:00 AM 19.4089 -74.0652 141° Southeast  Level Estimated
Tue 11:35:00 AM 19.3105 -73.9814 141° Southeast  Level Estimated
Tue 11:36:00 AM 19.2121 -73.8977 141° Southeast  Level Estimated
Tue 11:37:00 AM 19.1136 -73.8141 141° Southeast  Level Estimated
Tue 11:38:00 AM 19.0150 -73.7306 141° Southeast  Level Estimated
Tue 11:39:00 AM 18.9164 -73.6472 141° Southeast  Level Estimated
Tue 11:40:00 AM 18.8178 -73.5639 141° Southeast  Level Estimated
Tue 11:41:00 AM 18.7192 -73.4807 141° Southeast  Level Estimated
Tue 11:42:00 AM 18.6205 -73.3976 141° Southeast  Level Estimated
Tue 11:43:00 AM 18.5218 -73.3146 141° Southeast  Level Estimated
Tue 11:44:00 AM 18.4230 -73.2317 141° Southeast  Level Estimated
Tue 11:45:00 AM 18.3242 -73.1488 141° Southeast  Level Estimated
Tue 11:46:00 AM 18.2254 -73.0661 142° Southeast  Level Estimated
Tue 11:47:00 AM 18.1265 -72.9835 142° Southeast  Level Estimated
Tue 11:48:00 AM 18.0276 -72.9009 142° Southeast  Level Estimated
Tue 11:49:00 AM 17.9287 -72.8185 142° Southeast  Level Estimated
Tue 11:50:00 AM 17.8297 -72.7362 142° Southeast  Level Estimated
Tue 11:51:00 AM 17.7307 -72.6539 142° Southeast  Level Estimated
Tue 11:52:00 AM 17.6317 -72.5717 142° Southeast  Level Estimated
Tue 11:53:00 AM 17.5326 -72.4896 142° Southeast  Level Estimated
Tue 11:54:00 AM 17.4335 -72.4077 142° Southeast  Level Estimated
Tue 11:55:00 AM 17.3343 -72.3258 142° Southeast  Level Estimated
Tue 11:56:00 AM 17.2352 -72.2439 142° Southeast  Level Estimated
Tue 11:57:00 AM 17.1360 -72.1622 142° Southeast  Level Estimated
Tue 11:58:00 AM 17.0367 -72.0806 142° Southeast  Level Estimated
Tue 11:59:00 AM 16.9374 -71.9990 142° Southeast  Level Estimated
Tue 12:00:00 PM 16.8381 -71.9176 142° Southeast  Level Estimated
Tue 12:01:00 PM 16.7388 -71.8362 142° Southeast  Level Estimated
Tue 12:02:00 PM 16.6394 -71.7549 142° Southeast  Level Estimated
Tue 12:03:00 PM 16.5400 -71.6737 142° Southeast  Level Estimated
Tue 12:04:00 PM 16.4406 -71.5926 142° Southeast  Level Estimated
Tue 12:05:00 PM 16.3411 -71.5115 142° Southeast  Level Estimated
Tue 12:06:00 PM 16.2416 -71.4306 142° Southeast  Level Estimated
Tue 12:07:00 PM 16.1421 -71.3497 142° Southeast  Level Estimated
Tue 12:08:00 PM 16.0426 -71.2689 142° Southeast  Level Estimated
Tue 12:09:00 PM 15.9430 -71.1882 142° Southeast  Level Estimated
Tue 12:10:00 PM 15.8434 -71.1076 142° Southeast  Level Estimated
Tue 12:11:00 PM 15.7437 -71.0270 142° Southeast  Level Estimated
Tue 12:12:00 PM 15.6440 -70.9465 142° Southeast  Level Estimated
Tue 12:13:00 PM 15.5443 -70.8661 142° Southeast  Level Estimated
Tue 12:13:47 PM 14.0030 -72.0250 142° Southeast 461 531 33,000  Level FlightAware ADS-B
Tue 12:14:00 PM 15.4446 -70.7858 142° Southeast  Level Estimated
Tue 12:14:23 PM 13.9380 -71.9810 147° Southeast 461 531 33,000  Level FlightAware ADS-B
Tue 12:14:58 PM 13.8740 -71.9380 147° Southeast 461 531 33,000  Level FlightAware ADS-B
Tue 12:15:33 PM 13.8100 -71.8940 146° Southeast 467 537 33,000  Level FlightAware ADS-B
Tue 12:16:08 PM 13.7470 -71.8520 147° Southeast 466 536 33,000  Level FlightAware ADS-B
Tue 12:16:43 PM 13.6820 -71.8090 147° Southeast 466 536 33,000  Level FlightAware ADS-B
Tue 12:17:18 PM 13.6200 -71.7660 146° Southeast 466 536 33,000  Level FlightAware ADS-B
Tue 12:17:53 PM 13.5560 -71.7240 147° Southeast 466 536 33,000  Level FlightAware ADS-B
Tue 12:18:28 PM 13.4990 -71.6850 146° Southeast 465 535 33,000  Level FlightAware ADS-B
Tue 12:19:07 PM 13.4400 -71.6440 146° Southeast 465 535 33,000  Level FlightAware ADS-B
Tue 12:19:43 PM 13.3580 -71.5900 147° Southeast 467 537 33,000  Level FlightAware ADS-B
Tue 12:19:58 PM 13.3340 -71.5740 147° Southeast 461 531 33,000  Level FlightAware ADS-B
Tue 12:20:58 PM 13.2240 -71.5000 147° Southeast 461 531 33,000  Level FlightAware ADS-B
Tue 12:21:33 PM 13.1610 -71.4580 147° Southeast 462 532 33,000  Level FlightAware ADS-B
Tue 12:22:19 PM 13.0830 -71.4060 147° Southeast 462 532 33,000  Level FlightAware ADS-B
Tue 12:23:12 PM 12.9970 -71.3470 146° Southeast 462 532 33,000  Level FlightAware ADS-B
Tue 12:23:46 PM 12.9460 -71.3120 146° Southeast 462 532 33,000  Level FlightAware ADS-B
Tue 12:24:24 PM 12.8480 -71.2490 148° Southeast 462 532 33,000  Level FlightAware ADS-B
Tue 12:24:59 PM 12.7830 -71.2050 147° Southeast 462 532 33,000  Level FlightAware ADS-B
Tue 12:25:33 PM 12.7200 -71.1630 147° Southeast 462 532 33,000  Level FlightAware ADS-B
Tue 12:26:04 PM 12.6650 -71.1260 147° Southeast 460 529 33,000  Level FlightAware ADS-B
Tue 12:26:43 PM 12.5920 -71.0780 147° Southeast 460 529 33,000  Level FlightAware ADS-B
Tue 12:27:19 PM 12.5290 -71.0350 146° Southeast 466 536 33,000  Level FlightAware ADS-B
Tue 12:27:54 PM 12.4650 -70.9920 147° Southeast 466 536 33,000  Level FlightAware ADS-B
Tue 12:28:29 PM 12.4030 -70.9490 146° Southeast 465 535 33,000  Level FlightAware ADS-B
Tue 12:28:59 PM 12.3490 -70.9110 145° Southeast 465 535 33,000  Level FlightAware ADS-B
Tue 12:29:45 PM 12.2680 -70.8540 145° Southeast 464 534 33,000  Level FlightAware ADS-B
Tue 12:30:20 PM 12.2050 -70.8110 146° Southeast 464 534 33,000  Level FlightAware ADS-B
Tue 12:30:55 PM 12.1430 -70.7680 146° Southeast 464 534 33,000  Level FlightAware ADS-B
Tue 12:31:30 PM 12.0810 -70.7250 146° Southeast 464 534 33,000  Level FlightAware ADS-B
Tue 12:32:06 PM 12.0190 -70.6820 146° Southeast 463 533 33,000  Level FlightAware ADS-B
Tue 12:32:40 PM 11.9560 -70.6380 146° Southeast 456 525 33,000  Level FlightAware ADS-B
Tue 12:33:15 PM 11.8960 -70.5960 146° Southeast 455 524 33,000  Level FlightAware ADS-B
Tue 12:33:50 PM 11.8320 -70.5520 146° Southeast 455 524 33,000  Level FlightAware ADS-B
Tue 12:34:21 PM 11.7780 -70.5150 146° Southeast 454 522 33,000  Level FlightAware ADS-B
Tue 12:35:01 PM 11.7070 -70.4650 145° Southeast 453 521 33,000  Level FlightAware ADS-B
Tue 12:35:36 PM 11.6460 -70.4230 146° Southeast 453 521 33,000  Level FlightAware ADS-B
Tue 12:36:12 PM 11.5830 -70.3790 146° Southeast 453 521 33,000  Level FlightAware ADS-B
Tue 12:36:46 PM 11.5230 -70.3380 146° Southeast 453 521 33,000  Level FlightAware ADS-B
Tue 12:37:17 PM 11.4690 -70.3000 145° Southeast 452 520 33,000  Level FlightAware ADS-B
Tue 12:37:56 PM 11.3990 -70.2520 146° Southeast 452 520 33,000  Level FlightAware ADS-B
Tue 12:38:26 PM 11.3450 -70.2150 146° Southeast 452 520 33,000  Level FlightAware ADS-B
Tue 12:39:01 PM 11.2850 -70.1740 146° Southeast 453 521 33,000  Level FlightAware ADS-B
Tue 12:39:41 PM 11.2130 -70.1240 146° Southeast 454 522 33,000  Level FlightAware ADS-B
Tue 12:40:13 PM 11.1700 -70.0940 146° Southeast 454 522 33,000  Level FlightAware ADS-B
Tue 12:40:47 PM 11.0980 -70.0450 146° Southeast 454 522 33,000  Level FlightAware ADS-B
Tue 12:41:21 PM 11.0350 -70.0020 146° Southeast 455 524 33,000  Level FlightAware ADS-B
Tue 12:41:47 PM 10.9910 -69.9710 145° Southeast 463 533 33,000  Level FlightAware ADS-B
Tue 12:42:27 PM 10.9180 -69.9210 146° Southeast 463 533 33,000  Level FlightAware ADS-B
Tue 12:43:02 PM 10.8560 -69.8790 146° Southeast 464 534 33,000  Level FlightAware ADS-B
Tue 12:43:37 PM 10.7930 -69.8360 146° Southeast 463 533 33,000  Level FlightAware ADS-B
Tue 12:44:12 PM 10.7320 -69.7940 146° Southeast 462 532 33,000  Level FlightAware ADS-B
Tue 12:44:47 PM 10.6700 -69.7510 146° Southeast 462 532 33,000  Level FlightAware ADS-B
Tue 12:45:32 PM 10.5900 -69.6960 146° Southeast 454 522 33,000  Level FlightAware ADS-B
Tue 12:46:02 PM 10.5360 -69.6590 146° Southeast 454 522 33,000  Level FlightAware ADS-B
Tue 12:46:38 PM 10.4730 -69.6160 146° Southeast 453 521 33,000  Level FlightAware ADS-B
Tue 12:47:22 PM 10.3950 -69.5620 146° Southeast 452 520 33,000  Level FlightAware ADS-B
Tue 12:47:53 PM 10.3400 -69.5250 147° Southeast 451 519 33,000  Level FlightAware ADS-B
Tue 12:48:32 PM 10.2710 -69.4780 146° Southeast 452 520 33,000  Level FlightAware ADS-B
Tue 12:49:13 PM 10.2000 -69.4290 146° Southeast 451 519 33,000  Level FlightAware ADS-B
Tue 12:49:58 PM 10.1210 -69.3750 146° Southeast 449 517 33,000  Level FlightAware ADS-B
Tue 12:50:38 PM 10.0500 -69.3270 146° Southeast 450 518 33,000  Level FlightAware ADS-B
Tue 12:51:21 PM 9.9820 -69.2810 146° Southeast 449 517 33,000  Level FlightAware ADS-B
Tue 12:52:08 PM 9.8930 -69.2200 146° Southeast 447 514 33,000  Level FlightAware ADS-B
Tue 12:52:43 PM 9.8310 -69.1780 146° Southeast 445 512 33,000  Level FlightAware ADS-B
Tue 12:53:20 PM 9.7780 -69.1410 145° Southeast 445 512 33,000  Level FlightAware ADS-B
Tue 12:53:56 PM 9.7270 -69.1040 144° Southeast 445 512 33,000  Level FlightAware ADS-B
Tue 12:54:32 PM 9.6750 -69.0670 145° Southeast 445 512 33,000  Level FlightAware ADS-B
Tue 12:55:08 PM 9.6240 -69.0310 145° Southeast 445 512 33,000  Level FlightAware ADS-B
Tue 12:55:44 PM 9.5720 -68.9940 145° Southeast 445 512 33,000  Level FlightAware ADS-B
Tue 12:56:20 PM 9.5200 -68.9570 145° Southeast 445 512 33,000  Level FlightAware ADS-B
Tue 12:56:56 PM 9.4690 -68.9210 145° Southeast 445 512 33,000  Level FlightAware ADS-B
Tue 12:57:32 PM 9.4170 -68.8840 145° Southeast 445 512 33,000  Level FlightAware ADS-B
Tue 12:58:08 PM 9.3660 -68.8470 144° Southeast 445 512 33,000  Level FlightAware ADS-B
Tue 12:58:44 PM 9.3140 -68.8110 146° Southeast 445 512 33,000  Level FlightAware ADS-B
Tue 12:59:32 PM 9.2450 -68.7620 145° Southeast 445 512 33,000  Level FlightAware ADS-B
Tue 01:00:08 PM 9.1940 -68.7250 144° Southeast 445 512 33,000  Level FlightAware ADS-B
Tue 01:00:44 PM 9.1420 -68.6890 146° Southeast 445 512 33,000  Level FlightAware ADS-B
Tue 01:01:20 PM 9.0900 -68.6520 145° Southeast 445 512 33,000  Level FlightAware ADS-B
Tue 01:01:56 PM 9.0390 -68.6160 145° Southeast 445 512 33,000  Level FlightAware ADS-B
Tue 01:02:32 PM 8.9870 -68.5790 145° Southeast 445 512 33,000  Level FlightAware ADS-B
Tue 01:05:00 PM 8.7488 -68.3760 140° Southeast  Level Estimated
Tue 01:06:00 PM 8.6522 -68.2938 140° Southeast  Level Estimated
Tue 01:07:00 PM 8.5555 -68.2116 140° Southeast  Level Estimated
Tue 01:08:00 PM 8.4589 -68.1295 140° Southeast  Level Estimated
Tue 01:09:00 PM 8.3622 -68.0474 140° Southeast  Level Estimated
Tue 01:10:00 PM 8.2656 -67.9654 140° Southeast  Level Estimated
Tue 01:11:00 PM 8.1689 -67.8834 140° Southeast  Level Estimated
Tue 01:12:00 PM 8.0722 -67.8014 140° Southeast  Level Estimated
Tue 01:13:00 PM 7.9754 -67.7195 140° Southeast  Level Estimated
Tue 01:14:00 PM 7.8787 -67.6376 140° Southeast  Level Estimated
Tue 01:15:00 PM 7.7819 -67.5557 140° Southeast  Level Estimated
Tue 01:16:00 PM 7.6852 -67.4739 140° Southeast  Level Estimated
Tue 01:17:00 PM 7.5884 -67.3921 140° Southeast  Level Estimated
Tue 01:18:00 PM 7.4916 -67.3104 140° Southeast  Level Estimated
Tue 01:19:00 PM 7.3948 -67.2287 140° Southeast  Level Estimated
Tue 01:20:00 PM 7.2979 -67.1470 140° Southeast  Level Estimated
Tue 01:21:00 PM 7.2011 -67.0654 140° Southeast  Level Estimated
Tue 01:22:00 PM 7.1042 -66.9838 140° Southeast  Level Estimated
Tue 01:23:00 PM 7.0073 -66.9022 140° Southeast  Level Estimated
Tue 01:24:00 PM 6.9104 -66.8207 140° Southeast  Level Estimated
Tue 01:25:00 PM 6.8135 -66.7392 140° Southeast  Level Estimated
Tue 01:26:00 PM 6.7166 -66.6577 140° Southeast  Level Estimated
Tue 01:27:00 PM 6.6197 -66.5763 140° Southeast  Level Estimated
Tue 01:28:00 PM 6.5227 -66.4949 140° Southeast  Level Estimated
Tue 01:29:00 PM 6.4258 -66.4135 140° Southeast  Level Estimated
Tue 01:30:00 PM 6.3288 -66.3322 140° Southeast  Level Estimated
Tue 01:31:00 PM 6.2318 -66.2509 140° Southeast  Level Estimated
Tue 01:32:00 PM 6.1348 -66.1696 140° Southeast  Level Estimated
Tue 01:33:00 PM 6.0378 -66.0884 140° Southeast  Level Estimated
Tue 01:34:00 PM 5.9408 -66.0071 140° Southeast  Level Estimated
Tue 01:35:00 PM 5.8438 -65.9259 140° Southeast  Level Estimated
Tue 01:36:00 PM 5.7467 -65.8448 140° Southeast  Level Estimated
Tue 01:37:00 PM 5.6497 -65.7637 140° Southeast  Level Estimated
Tue 01:38:00 PM 5.5526 -65.6825 140° Southeast  Level Estimated
Tue 01:39:00 PM 5.4555 -65.6015 140° Southeast  Level Estimated
Tue 01:40:00 PM 5.3584 -65.5204 140° Southeast  Level Estimated
Tue 01:41:00 PM 5.2613 -65.4394 140° Southeast  Level Estimated
Tue 01:42:00 PM 5.1642 -65.3584 140° Southeast  Level Estimated
Tue 01:43:00 PM 5.0671 -65.2774 140° Southeast  Level Estimated
Tue 01:44:00 PM 4.9700 -65.1965 140° Southeast  Level Estimated
Tue 01:45:00 PM 4.8728 -65.1155 140° Southeast  Level Estimated
Tue 01:46:00 PM 4.7757 -65.0346 140° Southeast  Level Estimated
Tue 01:47:00 PM 4.6785 -64.9537 140° Southeast  Level Estimated
Tue 01:48:00 PM 4.5813 -64.8729 140° Southeast  Level Estimated
Tue 01:49:00 PM 4.4841 -64.7920 140° Southeast  Level Estimated
Tue 01:50:00 PM 4.3870 -64.7112 140° Southeast  Level Estimated
Tue 01:51:00 PM 4.2898 -64.6304 140° Southeast  Level Estimated
Tue 01:52:00 PM 4.1926 -64.5497 140° Southeast  Level Estimated
Tue 01:53:00 PM 4.0953 -64.4689 140° Southeast  Level Estimated
Tue 01:54:00 PM 3.9981 -64.3882 140° Southeast  Level Estimated
Tue 01:55:00 PM 3.9009 -64.3074 140° Southeast  Level Estimated
Tue 01:56:00 PM 3.8037 -64.2267 140° Southeast  Level Estimated
Tue 01:57:00 PM 3.7064 -64.1461 140° Southeast  Level Estimated
Tue 01:58:00 PM 3.6092 -64.0654 140° Southeast  Level Estimated
Tue 01:59:00 PM 3.5119 -63.9848 140° Southeast  Level Estimated
Tue 02:00:00 PM 3.4146 -63.9041 140° Southeast  Level Estimated
Tue 02:01:00 PM 3.3174 -63.8235 140° Southeast  Level Estimated
Tue 02:02:00 PM 3.2201 -63.7429 140° Southeast  Level Estimated
Tue 02:03:00 PM 3.1228 -63.6623 140° Southeast  Level Estimated
Tue 02:04:00 PM 3.0255 -63.5818 140° Southeast  Level Estimated
Tue 02:05:00 PM 2.9282 -63.5012 140° Southeast  Level Estimated
Tue 02:06:00 PM 2.8309 -63.4207 140° Southeast  Level Estimated
Tue 02:07:00 PM 2.7336 -63.3402 140° Southeast  Level Estimated
Tue 02:08:00 PM 2.6363 -63.2597 140° Southeast  Level Estimated
Tue 02:09:00 PM 2.5390 -63.1792 140° Southeast  Level Estimated
Tue 02:10:00 PM 2.4416 -63.0987 140° Southeast  Level Estimated
Tue 02:11:00 PM 2.3443 -63.0182 140° Southeast  Level Estimated
Tue 02:12:00 PM 2.2470 -62.9378 140° Southeast  Level Estimated
Tue 02:13:00 PM 2.1497 -62.8573 140° Southeast  Level Estimated
Tue 02:14:00 PM 2.0523 -62.7769 140° Southeast  Level Estimated
Tue 02:15:00 PM 1.9550 -62.6964 140° Southeast  Level Estimated
Tue 02:16:00 PM 1.8576 -62.6160 140° Southeast  Level Estimated
Tue 02:17:00 PM 1.7603 -62.5356 140° Southeast  Level Estimated
Tue 02:18:00 PM 1.6629 -62.4552 140° Southeast  Level Estimated
Tue 02:19:00 PM 1.5655 -62.3748 140° Southeast  Level Estimated
Tue 02:20:00 PM 1.4682 -62.2944 140° Southeast  Level Estimated
Tue 02:21:00 PM 1.3708 -62.2140 140° Southeast  Level Estimated
Tue 02:22:00 PM 1.2734 -62.1337 140° Southeast  Level Estimated
Tue 02:23:00 PM 1.1761 -62.0533 140° Southeast  Level Estimated
Tue 02:24:00 PM 1.0787 -61.9729 140° Southeast  Level Estimated
Tue 02:25:00 PM 0.9813 -61.8926 140° Southeast  Level Estimated
Tue 02:26:00 PM 0.8839 -61.8122 140° Southeast  Level Estimated
Tue 02:27:00 PM 0.7866 -61.7319 140° Southeast  Level Estimated
Tue 02:28:00 PM 0.6892 -61.6515 140° Southeast  Level Estimated
Tue 02:29:00 PM 0.5918 -61.5712 140° Southeast  Level Estimated
Tue 02:30:00 PM 0.4944 -61.4908 140° Southeast  Level Estimated
Tue 02:31:00 PM 0.3970 -61.4105 140° Southeast  Level Estimated
Tue 02:32:00 PM 0.2997 -61.3302 140° Southeast  Level Estimated
Tue 02:33:00 PM 0.2023 -61.2498 140° Southeast  Level Estimated
Tue 02:34:00 PM 0.1049 -61.1695 140° Southeast  Level Estimated
Tue 02:35:00 PM 0.0075 -61.0892 140° Southeast  Level Estimated
Tue 02:36:00 PM -0.0899 -61.0088 140° Southeast  Level Estimated
Tue 02:37:00 PM -0.1873 -60.9285 140° Southeast  Level Estimated
Tue 02:38:00 PM -0.2847 -60.8482 140° Southeast  Level Estimated
Tue 02:39:00 PM -0.3821 -60.7678 140° Southeast  Level Estimated
Tue 02:40:00 PM -0.4795 -60.6875 140° Southeast  Level Estimated
Tue 02:41:00 PM -0.5768 -60.6072 140° Southeast  Level Estimated
Tue 02:42:00 PM -0.6742 -60.5268 140° Southeast  Level Estimated
Tue 02:43:00 PM -0.7716 -60.4465 140° Southeast  Level Estimated
Tue 02:44:00 PM -0.8690 -60.3661 140° Southeast  Level Estimated
Tue 02:44:05 PM -1.7280 -61.6960 140° Southeast 442 509 33,000  Level FlightAware ADS-B
Tue 02:44:43 PM -1.7820 -61.6520 141° Southeast 442 509 33,000  Level FlightAware ADS-B
Tue 02:45:20 PM -1.8470 -61.6000 141° Southeast 440 506 33,000  Level FlightAware ADS-B
Tue 02:45:53 PM -1.9010 -61.5560 141° Southeast 437 503 33,000  Level FlightAware ADS-B
Tue 02:46:33 PM -1.9640 -61.5060 142° Southeast 435 501 33,000  Level FlightAware ADS-B
Tue 02:47:05 PM -2.0170 -61.4690 145° Southeast 435 501 33,000  Level FlightAware ADS-B
Tue 02:47:41 PM -2.0770 -61.4290 146° Southeast 434 499 33,000  Level FlightAware ADS-B
Tue 02:48:12 PM -2.1290 -61.3940 146° Southeast 433 498 33,000  Level FlightAware ADS-B
Tue 02:48:53 PM -2.1970 -61.3470 145° Southeast 436 502 33,000  Level FlightAware ADS-B
Tue 02:49:23 PM -2.2480 -61.3120 146° Southeast 436 502 33,000 618 Level FlightAware ADS-B
Tue 02:50:01 PM -2.3110 -61.2670 144° Southeast 436 502 33,700 1,378 Climbing FlightAware ADS-B
Tue 02:50:37 PM -2.3700 -61.2270 146° Southeast 433 498 34,700 1,130 Climbing FlightAware ADS-B
Tue 02:51:10 PM -2.4230 -61.1900 145° Southeast 432 497 35,000 257 Climbing FlightAware ADS-B
Tue 02:51:47 PM -2.4840 -61.1480 145° Southeast 429 494 35,000  Level FlightAware ADS-B
Tue 02:52:21 PM -2.5410 -61.1090 146° Southeast 426 490 35,000  Level FlightAware ADS-B
Tue 02:52:57 PM -2.5990 -61.0690 145° Southeast 427 491 35,000  Level FlightAware ADS-B
Tue 02:53:30 PM -2.6530 -61.0320 146° Southeast 428 493 35,000  Level FlightAware ADS-B
Tue 02:54:05 PM -2.7110 -60.9920 145° Southeast 428 493 35,000  Level FlightAware ADS-B
Tue 02:54:43 PM -2.7730 -60.9490 145° Southeast 427 491 35,000  Level FlightAware ADS-B
Tue 02:55:17 PM -2.8280 -60.9120 146° Southeast 427 491 35,000  Level FlightAware ADS-B
Tue 02:55:49 PM -2.8810 -60.8750 145° Southeast 428 493 35,000  Level FlightAware ADS-B
Tue 02:56:25 PM -2.9390 -60.8350 145° Southeast 430 495 35,000  Level FlightAware ADS-B
Tue 02:56:59 PM -2.9960 -60.7960 146° Southeast 432 497 35,000  Level FlightAware ADS-B
Tue 02:57:35 PM -3.0550 -60.7550 145° Southeast 434 499 35,000  Level FlightAware ADS-B
Tue 02:58:11 PM -3.1160 -60.7130 145° Southeast 436 502 35,000  Level FlightAware ADS-B
Tue 02:58:48 PM -3.1760 -60.6720 146° Southeast 435 501 35,000  Level FlightAware ADS-B
Tue 02:59:24 PM -3.2360 -60.6300 145° Southeast 436 502 35,000  Level FlightAware ADS-B
Tue 02:59:55 PM -3.2880 -60.5920 144° Southeast 438 504 35,000  Level FlightAware ADS-B
Tue 03:00:32 PM -3.3450 -60.5460 141° Southeast 438 504 35,000  Level FlightAware ADS-B
Tue 03:01:05 PM -3.3970 -60.5040 141° Southeast 440 506 35,000  Level FlightAware ADS-B
Tue 03:01:41 PM -3.4540 -60.4570 141° Southeast 440 506 35,000  Level FlightAware ADS-B
Tue 03:02:35 PM -3.5280 -60.3900 138° Southeast 440 506 35,000  Level FlightAware ADS-B
Tue 03:03:14 PM -3.5990 -60.3350 142° Southeast 437 503 35,000  Level FlightAware ADS-B
Tue 03:03:49 PM -3.6560 -60.2960 146° Southeast 438 504 35,000  Level FlightAware ADS-B
Tue 03:04:17 PM -3.7070 -60.2660 150° Southeast 439 505 35,000  Level FlightAware ADS-B
Tue 03:04:55 PM -3.7720 -60.2290 150° Southeast 439 505 35,000  Level FlightAware ADS-B
Tue 03:05:33 PM -3.8410 -60.1870 149° Southeast 440 506 35,000  Level FlightAware ADS-B
Tue 03:06:23 PM -3.9210 -60.1380 149° Southeast 442 509 35,000  Level FlightAware ADS-B
Tue 03:06:59 PM -3.9740 -60.1050 148° Southeast 442 509 35,000  Level FlightAware ADS-B
Tue 03:07:47 PM -4.0450 -60.0610 148° Southeast 442 509 35,000  Level FlightAware ADS-B
Tue 03:08:24 PM -4.0990 -60.0260 147° Southeast 442 509 35,000  Level FlightAware ADS-B
Tue 03:08:59 PM -4.1510 -59.9940 148° Southeast 442 509 35,000  Level FlightAware ADS-B
Tue 03:09:35 PM -4.2040 -59.9610 148° Southeast 442 509 35,000  Level FlightAware ADS-B
Tue 03:10:11 PM -4.2570 -59.9280 148° Southeast 442 509 35,000  Level FlightAware ADS-B
Tue 03:10:48 PM -4.3110 -59.8930 147° Southeast 442 509 35,000  Level FlightAware ADS-B
Tue 03:11:16 PM -4.3530 -59.8680 149° Southeast 442 509 35,000  Level FlightAware ADS-B
Tue 03:11:52 PM -4.4060 -59.8340 147° Southeast 442 509 35,000  Level FlightAware ADS-B
Tue 03:12:40 PM -4.4760 -59.7900 148° Southeast 442 509 35,000  Level FlightAware ADS-B
Tue 03:13:16 PM -4.5300 -59.7570 149° Southeast 442 509 35,000  Level FlightAware ADS-B
Tue 03:13:52 PM -4.5830 -59.7230 147° Southeast 442 509 35,000  Level FlightAware ADS-B
Tue 03:14:28 PM -4.6360 -59.6900 148° Southeast 442 509 35,000  Level FlightAware ADS-B
Tue 03:15:05 PM -4.6900 -59.6560 148° Southeast 442 509 35,000  Level FlightAware ADS-B
Tue 03:15:41 PM -4.7430 -59.6230 148° Southeast 442 509 35,000 17 Level FlightAware ADS-B
Tue 03:18:00 PM -4.9521 -59.4178 136° Southeast  Level Estimated
Tue 03:19:00 PM -5.0423 -59.3291 136° Southeast  Level Estimated
Tue 03:20:00 PM -5.1325 -59.2405 136° Southeast  Level Estimated
Tue 03:21:00 PM -5.2227 -59.1518 136° Southeast  Level Estimated
Tue 03:22:00 PM -5.3129 -59.0630 136° Southeast  Level Estimated
Tue 03:23:00 PM -5.4030 -58.9743 136° Southeast  Level Estimated
Tue 03:24:00 PM -5.4932 -58.8855 136° Southeast  Level Estimated
Tue 03:25:00 PM -5.5834 -58.7967 136° Southeast  Level Estimated
Tue 03:26:00 PM -5.6735 -58.7079 136° Southeast  Level Estimated
Tue 03:27:00 PM -5.7636 -58.6191 136° Southeast  Level Estimated
Tue 03:28:00 PM -5.8537 -58.5302 136° Southeast  Level Estimated
Tue 03:29:00 PM -5.9438 -58.4413 136° Southeast  Level Estimated
Tue 03:30:00 PM -6.0339 -58.3524 136° Southeast  Level Estimated
Tue 03:31:00 PM -6.1240 -58.2634 136° Southeast  Level Estimated
Tue 03:32:00 PM -6.2140 -58.1744 136° Southeast  Level Estimated
Tue 03:33:00 PM -6.3041 -58.0854 135° Southeast  Level Estimated
Tue 03:34:00 PM -6.3941 -57.9963 135° Southeast  Level Estimated
Tue 03:35:00 PM -6.4841 -57.9072 135° Southeast  Level Estimated
Tue 03:36:00 PM -6.5741 -57.8181 135° Southeast  Level Estimated
Tue 03:37:00 PM -6.6641 -57.7290 135° Southeast  Level Estimated
Tue 03:38:00 PM -6.7540 -57.6398 135° Southeast  Level Estimated
Tue 03:39:00 PM -6.8439 -57.5506 135° Southeast  Level Estimated
Tue 03:40:00 PM -6.9339 -57.4613 135° Southeast  Level Estimated
Tue 03:41:00 PM -7.0238 -57.3720 135° Southeast  Level Estimated
Tue 03:42:00 PM -7.1137 -57.2827 135° Southeast  Level Estimated
Tue 03:43:00 PM -7.2035 -57.1934 135° Southeast  Level Estimated
Tue 03:44:00 PM -7.2934 -57.1040 135° Southeast  Level Estimated
Tue 03:45:00 PM -7.3833 -57.0145 135° Southeast  Level Estimated
Tue 03:46:00 PM -7.4731 -56.9251 135° Southeast  Level Estimated
Tue 03:47:00 PM -7.5629 -56.8356 135° Southeast  Level Estimated
Tue 03:48:00 PM -7.6527 -56.7461 135° Southeast  Level Estimated
Tue 03:49:00 PM -7.7424 -56.6565 135° Southeast  Level Estimated
Tue 03:50:00 PM -7.8322 -56.5669 135° Southeast  Level Estimated
Tue 03:51:00 PM -7.9219 -56.4772 135° Southeast  Level Estimated
Tue 03:52:00 PM -8.0116 -56.3875 135° Southeast  Level Estimated
Tue 03:53:00 PM -8.1013 -56.2978 135° Southeast  Level Estimated
Tue 03:54:00 PM -8.1910 -56.2080 135° Southeast  Level Estimated
Tue 03:55:00 PM -8.2806 -56.1182 135° Southeast  Level Estimated
Tue 03:56:00 PM -8.3703 -56.0284 135° Southeast  Level Estimated
Tue 03:57:00 PM -8.4599 -55.9385 135° Southeast  Level Estimated
Tue 03:58:00 PM -8.5495 -55.8485 135° Southeast  Level Estimated
Tue 03:59:00 PM -8.6390 -55.7586 135° Southeast  Level Estimated
Tue 04:00:00 PM -8.7286 -55.6685 135° Southeast  Level Estimated
Tue 04:01:00 PM -8.8181 -55.5785 135° Southeast  Level Estimated
Tue 04:02:00 PM -8.9076 -55.4884 135° Southeast  Level Estimated
Tue 04:03:00 PM -8.9971 -55.3982 135° Southeast  Level Estimated
Tue 04:04:00 PM -9.0866 -55.3080 135° Southeast  Level Estimated
Tue 04:05:00 PM -9.1760 -55.2178 135° Southeast  Level Estimated
Tue 04:06:00 PM -9.2654 -55.1275 135° Southeast  Level Estimated
Tue 04:07:00 PM -9.3548 -55.0372 135° Southeast  Level Estimated
Tue 04:08:00 PM -9.4442 -54.9468 135° Southeast  Level Estimated
Tue 04:09:00 PM -9.5335 -54.8564 135° Southeast  Level Estimated
Tue 04:10:00 PM -9.6229 -54.7659 135° Southeast  Level Estimated
Tue 04:11:00 PM -9.7122 -54.6754 135° Southeast  Level Estimated
Tue 04:12:00 PM -9.8014 -54.5848 135° Southeast  Level Estimated
Tue 04:13:00 PM -9.8907 -54.4942 135° Southeast  Level Estimated
Tue 04:14:00 PM -9.9799 -54.4035 135° Southeast  Level Estimated
Tue 04:15:00 PM -10.0691 -54.3128 135° Southeast  Level Estimated
Tue 04:16:00 PM -10.1583 -54.2220 135° Southeast  Level Estimated
Tue 04:17:00 PM -10.2475 -54.1312 135° Southeast  Level Estimated
Tue 04:18:00 PM -10.3366 -54.0404 135° Southeast  Level Estimated
Tue 04:19:00 PM -10.4257 -53.9494 135° Southeast  Level Estimated
Tue 04:20:00 PM -10.5148 -53.8585 135° Southeast  Level Estimated
Tue 04:21:00 PM -10.6039 -53.7674 135° Southeast  Level Estimated
Tue 04:22:00 PM -10.6929 -53.6764 135° Southeast  Level Estimated
Tue 04:23:00 PM -10.7819 -53.5852 135° Southeast  Level Estimated
Tue 04:24:00 PM -10.8708 -53.4941 135° Southeast  Level Estimated
Tue 04:25:00 PM -10.9598 -53.4028 135° Southeast  Level Estimated
Tue 04:26:00 PM -11.0487 -53.3115 135° Southeast  Level Estimated
Tue 04:27:00 PM -11.1376 -53.2202 135° Southeast  Level Estimated
Tue 04:28:00 PM -11.2265 -53.1288 135° Southeast  Level Estimated
Tue 04:29:00 PM -11.3153 -53.0373 135° Southeast  Level Estimated
Tue 04:30:00 PM -11.4041 -52.9458 135° Southeast  Level Estimated
Tue 04:31:00 PM -11.4929 -52.8542 135° Southeast  Level Estimated
Tue 04:32:00 PM -11.5817 -52.7626 135° Southeast  Level Estimated
Tue 04:33:00 PM -11.6704 -52.6709 135° Southeast  Level Estimated
Tue 04:34:00 PM -11.7591 -52.5792 135° Southeast  Level Estimated
Tue 04:35:00 PM -11.8477 -52.4874 135° Southeast  Level Estimated
Tue 04:36:00 PM -11.9364 -52.3955 135° Southeast  Level Estimated
Tue 04:37:00 PM -12.0250 -52.3036 135° Southeast  Level Estimated
Tue 04:38:00 PM -12.1136 -52.2116 135° Southeast  Level Estimated
Tue 04:39:00 PM -12.2021 -52.1195 135° Southeast  Level Estimated
Tue 04:40:00 PM -12.2907 -52.0274 135° Southeast  Level Estimated
Tue 04:41:00 PM -12.3791 -51.9352 135° Southeast  Level Estimated
Tue 04:42:00 PM -12.4676 -51.8430 134° Southeast  Level Estimated
Tue 04:43:00 PM -12.5560 -51.7507 134° Southeast  Level Estimated
Tue 04:44:00 PM -12.6444 -51.6583 134° Southeast  Level Estimated
Tue 04:45:00 PM -12.7327 -51.5659 134° Southeast  Level Estimated
Tue 04:46:00 PM -12.8211 -51.4734 134° Southeast  Level Estimated
Tue 04:47:00 PM -12.9094 -51.3809 134° Southeast  Level Estimated
Tue 04:48:00 PM -12.9976 -51.2882 134° Southeast  Level Estimated
Tue 04:49:00 PM -13.0859 -51.1955 134° Southeast  Level Estimated
Tue 04:50:00 PM -13.1741 -51.1028 134° Southeast  Level Estimated
Tue 04:51:00 PM -13.2622 -51.0100 134° Southeast  Level Estimated
Tue 04:52:00 PM -13.3504 -50.9171 134° Southeast  Level Estimated
Tue 04:53:00 PM -13.4384 -50.8241 134° Southeast  Level Estimated
Tue 04:54:00 PM -13.5265 -50.7311 134° Southeast  Level Estimated
Tue 04:55:00 PM -13.6145 -50.6380 134° Southeast  Level Estimated
Tue 04:56:00 PM -13.7025 -50.5449 134° Southeast  Level Estimated
Tue 04:57:00 PM -13.7905 -50.4516 134° Southeast  Level Estimated
Tue 04:58:00 PM -13.8784 -50.3583 134° Southeast  Level Estimated
Tue 04:59:00 PM -13.9663 -50.2650 134° Southeast  Level Estimated
Tue 05:00:00 PM -14.0541 -50.1715 134° Southeast  Level Estimated
Tue 05:01:00 PM -14.1420 -50.0780 134° Southeast  Level Estimated
Tue 05:02:00 PM -14.2297 -49.9844 134° Southeast  Level Estimated
Tue 05:03:00 PM -14.3175 -49.8908 134° Southeast  Level Estimated
Tue 05:04:00 PM -14.4052 -49.7970 134° Southeast  Level Estimated
Tue 05:05:00 PM -14.4929 -49.7032 134° Southeast  Level Estimated
Tue 05:06:00 PM -14.5805 -49.6093 134° Southeast  Level Estimated
Tue 05:07:00 PM -14.6681 -49.5154 134° Southeast  Level Estimated
Tue 05:08:00 PM -14.7556 -49.4213 134° Southeast  Level Estimated
Tue 05:09:00 PM -14.8432 -49.3272 134° Southeast  Level Estimated
Tue 05:09:38 PM -14.8670 -49.8280 134° Southeast 461 531 37,000  Level FlightAware ADS-B
Tue 05:10:00 PM -14.9306 -49.2331 134° Southeast  Level Estimated
Tue 05:10:15 PM -14.9160 -49.7670 130° Southeast 461 531 37,000  Level FlightAware ADS-B
Tue 05:10:47 PM -14.9630 -49.7070 129° Southeast 463 533 37,000  Level FlightAware ADS-B
Tue 05:11:22 PM -15.0110 -49.6470 130° Southeast 464 534 37,000  Level FlightAware ADS-B
Tue 05:12:14 PM -15.0770 -49.5640 129° Southeast 465 535 37,000  Level FlightAware ADS-B
Tue 05:12:47 PM -15.1260 -49.5020 129° Southeast 464 534 37,000  Level FlightAware ADS-B
Tue 05:13:22 PM -15.1720 -49.4440 129° Southeast 464 534 37,000  Level FlightAware ADS-B
Tue 05:13:58 PM -15.2220 -49.3820 130° Southeast 464 534 37,000  Level FlightAware ADS-B
Tue 05:14:33 PM -15.2690 -49.3220 129° Southeast 464 534 37,000  Level FlightAware ADS-B
Tue 05:15:08 PM -15.3170 -49.2610 129° Southeast 464 534 37,000  Level FlightAware ADS-B
Tue 05:15:47 PM -15.3710 -49.1920 129° Southeast 464 534 37,000  Level FlightAware ADS-B
Tue 05:16:27 PM -15.4250 -49.1240 129° Southeast 464 534 37,000  Level FlightAware ADS-B
Tue 05:17:02 PM -15.4720 -49.0640 129° Southeast 464 534 37,000  Level FlightAware ADS-B
Tue 05:17:32 PM -15.5140 -49.0110 129° Southeast 465 535 37,000  Level FlightAware ADS-B
Tue 05:18:07 PM -15.5610 -48.9510 129° Southeast 465 535 37,000  Level FlightAware ADS-B
Tue 05:18:43 PM -15.6090 -48.8900 129° Southeast 465 535 37,000  Level FlightAware ADS-B
Tue 05:19:17 PM -15.6560 -48.8300 129° Southeast 465 535 37,000  Level FlightAware ADS-B
Tue 05:19:53 PM -15.7050 -48.7690 130° Southeast 466 536 37,000  Level FlightAware ADS-B
Tue 05:20:32 PM -15.7590 -48.6990 129° Southeast 465 535 37,000  Level FlightAware ADS-B
Tue 05:21:07 PM -15.8070 -48.6390 130° Southeast 466 536 37,000  Level FlightAware ADS-B
Tue 05:21:37 PM -15.8470 -48.5880 129° Southeast 466 536 37,000  Level FlightAware ADS-B
Tue 05:22:12 PM -15.8950 -48.5260 129° Southeast 466 536 37,000  Level FlightAware ADS-B
Tue 05:22:52 PM -15.9490 -48.4570 129° Southeast 467 537 37,000  Level FlightAware ADS-B
Tue 05:23:22 PM -15.9880 -48.4070 129° Southeast 468 539 37,000  Level FlightAware ADS-B
Tue 05:23:57 PM -16.0380 -48.3430 129° Southeast 467 537 37,000  Level FlightAware ADS-B
Tue 05:24:37 PM -16.0920 -48.2730 129° Southeast 468 539 37,000  Level FlightAware ADS-B
Tue 05:25:07 PM -16.1330 -48.2220 130° Southeast 469 540 37,000  Level FlightAware ADS-B
Tue 05:25:42 PM -16.1810 -48.1600 129° Southeast 469 540 37,000  Level FlightAware ADS-B
Tue 05:26:22 PM -16.2350 -48.0900 129° Southeast 469 540 37,000  Level FlightAware ADS-B
Tue 05:26:52 PM -16.2770 -48.0360 129° Southeast 469 540 37,000  Level FlightAware ADS-B
Tue 05:27:27 PM -16.3230 -47.9760 129° Southeast 470 541 37,000  Level FlightAware ADS-B
Tue 05:28:07 PM -16.3790 -47.9050 129° Southeast 472 543 37,000  Level FlightAware ADS-B
Tue 05:28:42 PM -16.4270 -47.8420 128° Southeast 472 543 37,000  Level FlightAware ADS-B
Tue 05:29:12 PM -16.4680 -47.7900 129° Southeast 472 543 37,000  Level FlightAware ADS-B
Tue 05:29:52 PM -16.5220 -47.7200 129° Southeast 473 544 37,000  Level FlightAware ADS-B
Tue 05:30:27 PM -16.5710 -47.6560 129° Southeast 473 544 37,000  Level FlightAware ADS-B
Tue 05:30:57 PM -16.6100 -47.6050 129° Southeast 472 543 37,000  Level FlightAware ADS-B
Tue 05:31:33 PM -16.6610 -47.5420 130° Southeast 473 544 37,000  Level FlightAware ADS-B
Tue 05:32:12 PM -16.7200 -47.4760 133° Southeast 472 543 37,000  Level FlightAware ADS-B
Tue 05:32:43 PM -16.7680 -47.4230 133° Southeast 472 543 37,000  Level FlightAware ADS-B
Tue 05:33:20 PM -16.8210 -47.3660 134° Southeast 473 544 37,000  Level FlightAware ADS-B
Tue 05:33:55 PM -16.8760 -47.3050 133° Southeast 473 544 37,000  Level FlightAware ADS-B
Tue 05:34:37 PM -16.9330 -47.2430 134° Southeast 473 544 37,000  Level FlightAware ADS-B
Tue 05:35:11 PM -16.9910 -47.1800 134° Southeast 475 547 37,000  Level FlightAware ADS-B
Tue 05:35:47 PM -17.0460 -47.1200 134° Southeast 476 548 37,000  Level FlightAware ADS-B
Tue 05:36:35 PM -17.1190 -47.0410 134° Southeast 476 548 37,000  Level FlightAware ADS-B
Tue 05:37:11 PM -17.1740 -46.9800 133° Southeast 477 549 37,000  Level FlightAware ADS-B
Tue 05:37:47 PM -17.2300 -46.9200 134° Southeast 475 547 37,000  Level FlightAware ADS-B
Tue 05:38:29 PM -17.2940 -46.8490 133° Southeast 476 548 37,000  Level FlightAware ADS-B
Tue 05:39:06 PM -17.3480 -46.7890 133° Southeast 475 547 37,000  Level FlightAware ADS-B
Tue 05:39:39 PM -17.3990 -46.7340 134° Southeast 475 547 37,000  Level FlightAware ADS-B
Tue 05:41:21 PM -17.5300 -46.5870 133° Southeast 475 547 37,000  Level FlightAware ADS-B
Tue 05:42:03 PM -17.6090 -46.5010 134° Southeast 475 547 37,000  Level FlightAware ADS-B
Tue 05:42:41 PM -17.6570 -46.4470 133° Southeast 475 547 37,000  Level FlightAware ADS-B
Tue 05:43:11 PM -17.7140 -46.3830 133° Southeast 476 548 37,000  Level FlightAware ADS-B
Tue 05:43:45 PM -17.7650 -46.3260 133° Southeast 475 547 37,000  Level FlightAware ADS-B
Tue 05:44:20 PM -17.8220 -46.2620 133° Southeast 474 545 37,000  Level FlightAware ADS-B
Tue 05:44:57 PM -17.8700 -46.2080 133° Southeast 474 545 37,000  Level FlightAware ADS-B
Tue 05:45:34 PM -17.9170 -46.1550 133° Southeast 474 545 37,000  Level FlightAware ADS-B
Tue 05:46:10 PM -17.9630 -46.1040 133° Southeast 474 545 37,000  Level FlightAware ADS-B
Tue 05:46:40 PM -18.0280 -46.0320 134° Southeast 475 547 37,000  Level FlightAware ADS-B
Tue 05:47:18 PM -18.0850 -45.9690 134° Southeast 475 547 37,000  Level FlightAware ADS-B
Tue 05:48:02 PM -18.1450 -45.9010 133° Southeast 476 548 37,000  Level FlightAware ADS-B
Tue 05:48:46 PM -18.2160 -45.8210 133° Southeast 477 549 37,000  Level FlightAware ADS-B
Tue 05:49:33 PM -18.2880 -45.7400 133° Southeast 479 551 37,000  Level FlightAware ADS-B
Tue 05:50:06 PM -18.3320 -45.6890 132° Southeast 479 551 37,000  Level FlightAware ADS-B
Tue 05:50:45 PM -18.4010 -45.6130 134° Southeast 480 552 37,000  Level FlightAware ADS-B
Tue 05:51:21 PM -18.4510 -45.5560 133° Southeast 481 554 37,000  Level FlightAware ADS-B
Tue 05:51:51 PM -18.4960 -45.5080 135° Southeast 480 552 37,000 -348 Level FlightAware ADS-B
Tue 05:52:30 PM -18.5590 -45.4400 134° Southeast 469 540 36,600 -1,575 Descending FlightAware ADS-B
Tue 05:53:11 PM -18.6220 -45.3720 134° Southeast 464 534 34,900 -3,225 Descending FlightAware ADS-B
Tue 05:53:50 PM -18.6840 -45.3040 134° Southeast 460 529 32,300 -4,560 Descending FlightAware ADS-B
Tue 05:54:26 PM -18.7350 -45.2490 134° Southeast 466 536 29,200 -4,480 Descending FlightAware ADS-B
Tue 05:55:05 PM -18.7950 -45.1840 134° Southeast 466 536 26,700 -3,190 Descending FlightAware ADS-B
Tue 05:55:45 PM -18.8560 -45.1170 134° Southeast 454 522 25,000 -2,447 Descending FlightAware ADS-B
Tue 05:56:21 PM -18.9050 -45.0630 134° Southeast 444 511 23,600 -2,400 Descending FlightAware ADS-B
Tue 05:56:55 PM -18.9520 -45.0110 134° Southeast 435 501 22,200 -2,522 Descending FlightAware ADS-B
Tue 05:57:30 PM -19.0040 -44.9550 134° Southeast 429 494 20,700 -2,368 Descending FlightAware ADS-B
Tue 05:58:11 PM -19.0590 -44.8950 134° Southeast 421 484 19,200 -2,320 Descending FlightAware ADS-B
Tue 05:58:45 PM -19.1050 -44.8440 134° Southeast 413 475 17,800 -2,314 Descending FlightAware ADS-B
Tue 05:59:21 PM -19.1480 -44.7970 134° Southeast 406 467 16,500 -1,971 Descending FlightAware ADS-B
Tue 05:59:55 PM -19.1900 -44.7390 127° Southeast 394 453 15,500 -1,739 Descending FlightAware ADS-B
Tue 06:00:30 PM -19.2170 -44.6780 115° Southeast 384 442 14,500 -1,859 Descending FlightAware ADS-B
Tue 06:01:06 PM -19.2410 -44.6220 114° Southeast 378 435 13,300 -2,143 Descending FlightAware ADS-B
Tue 06:01:40 PM -19.2670 -44.5590 114° Southeast 370 426 12,000 -2,143 Descending FlightAware ADS-B
Tue 06:02:16 PM -19.2900 -44.5020 113° Southeast 362 417 10,800 -1,268 Descending FlightAware ADS-B
Tue 06:02:51 PM -19.3130 -44.4480 114° Southeast 331 381 10,500 -831 Descending FlightAware ADS-B
Tue 06:03:21 PM -19.3310 -44.4030 113° Southeast 308 354 9,900 -857 Descending FlightAware ADS-B
Tue 06:03:40 PM -19.3410 -44.3780 113° Southeast 279 321 9,800 -450 Descending FlightAware ADS-B
Tue 06:04:01 PM -19.3510 -44.3540 114° Southeast 269 310 9,600 -968 Descending FlightAware ADS-B
Tue 06:04:11 PM -19.3560 -44.3410 112° Southeast 268 308 9,300 -1,500 Descending FlightAware ADS-B
Tue 06:04:37 PM -19.3680 -44.3130 114° Southeast 268 308 8,700 -1,333 Descending FlightAware ADS-B
Tue 06:04:56 PM -19.3790 -44.2870 114° Southeast 268 308 8,300 -1,385 Descending FlightAware ADS-B
Tue 06:05:16 PM -19.3890 -44.2640 115° Southeast 267 307 7,800 -1,350 Descending FlightAware ADS-B
Tue 06:05:36 PM -19.3980 -44.2420 113° Southeast 258 297 7,400 -1,200 Descending FlightAware ADS-B
Tue 06:05:56 PM -19.4080 -44.2170 113° Southeast 243 280 7,000 -1,467 Descending FlightAware ADS-B
Tue 06:06:21 PM -19.4180 -44.1920 113° Southeast 236 272 6,300 -1,500 Descending FlightAware ADS-B
Tue 06:06:40 PM -19.4270 -44.1700 113° Southeast 227 261 5,900 -900 Descending FlightAware ADS-B
Tue 06:07:01 PM -19.4360 -44.1530 119° Southeast 215 247 5,700 -581 Descending FlightAware ADS-B
Tue 06:07:11 PM -19.4450 -44.1430 134° Southeast 211 243 5,600 -960 Descending FlightAware ADS-B
Tue 06:07:26 PM -19.4560 -44.1340 142° Southeast 204 235 5,300 -1,077 Descending FlightAware ADS-B
Tue 06:07:50 PM -19.4730 -44.1170 137° Southeast 197 227 4,900 -800 Descending FlightAware ADS-B
Tue 06:08:11 PM -19.4860 -44.1050 139° Southeast 189 217 4,700 -324 Descending FlightAware ADS-B
Tue 06:08:27 PM -19.4960 -44.0960 140° Southeast 183 211 4,700  Level FlightAware ADS-B
Tue 06:08:45 PM -19.5090 -44.0840 139° Southeast 185 213 4,700  Level FlightAware ADS-B
Tue 06:09:01 PM -19.5190 -44.0750 140° Southeast 186 214 4,700  Level FlightAware ADS-B
Tue 06:09:21 PM -19.5320 -44.0630 139° Southeast 179 206 4,700 -308 Level FlightAware ADS-B
Tue 06:09:40 PM -19.5440 -44.0520 139° Southeast 168 193 4,500 -857 Descending FlightAware ADS-B
Tue 06:09:56 PM -19.5520 -44.0440 137° Southeast 153 176 4,200 -774 Descending FlightAware ADS-B
Tue 06:10:11 PM -19.5590 -44.0380 141° Southeast 149 171 4,100 -706 Descending FlightAware ADS-B
Tue 06:10:30 PM -19.5700 -44.0270 137° Southeast 143 165 3,800 -882 Descending FlightAware ADS-B
Tue 06:10:45 PM -19.5780 -44.0210 145° Southeast 143 165 3,600 -400 Descending FlightAware ADS-B
Tue 06:11:15 PM -19.5810 -44.0170 129° Southeast 142 163 3,500 -321 Descending FlightAware ADS-B
Tue 06:11:41 PM -19.5910 -44.0080 140° Southeast 140 161 3,300 -643 Descending FlightAware ADS-B
Tue 06:12:11 PM -19.6070 -43.9940 141° Southeast 140 161 2,900 -800 Descending FlightAware ADS-B
Tue 06:12:43 PM -19.6340 -43.9690 139° Southeast 86 99 -5,438 Descending FlightAware ADS-B

Login

Don't have an account? Register now (free) for customized features, flight alerts, and more!